createdAt,value
2018-03-16T00:02:11.482Z,95774.86
2018-03-16T00:04:38.892Z,95773.40
2018-03-16T00:07:06.375Z,95778.31
2018-03-16T00:09:33.886Z,95772.13
2018-03-16T00:12:01.280Z,95778.88
2018-03-16T00:14:28.769Z,95772.23
2018-03-16T00:16:56.192Z,95773.80
2018-03-16T00:19:23.647Z,95789.00
2018-03-16T00:21:51.075Z,95787.23
2018-03-16T00:24:18.608Z,95781.51
2018-03-16T00:26:46.037Z,95782.05
2018-03-16T00:29:14.452Z,95794.11
2018-03-16T00:31:42.949Z,95790.84
2018-03-16T00:34:10.411Z,95787.91
2018-03-16T00:36:37.922Z,95784.63
2018-03-16T00:39:05.391Z,95782.36
2018-03-16T00:41:32.856Z,95781.98
2018-03-16T00:44:00.360Z,95784.17
2018-03-16T00:46:27.752Z,95780.75
2018-03-16T00:48:55.182Z,95782.75
2018-03-16T00:51:22.620Z,95781.94
2018-03-16T00:53:50.044Z,95784.57
2018-03-16T00:56:17.469Z,95791.55
2018-03-16T00:58:44.922Z,95794.57
2018-03-16T01:01:13.279Z,95797.14
2018-03-16T01:03:40.678Z,95797.20
2018-03-16T01:06:08.082Z,95793.65
2018-03-16T01:08:35.537Z,95803.33
2018-03-16T01:11:02.926Z,95801.77
2018-03-16T01:13:30.567Z,95806.12
2018-03-16T01:15:58.029Z,95810.31
2018-03-16T01:18:25.586Z,95816.10
2018-03-16T01:20:53.067Z,95804.86
2018-03-16T01:23:20.580Z,95800.28
2018-03-16T01:25:48.062Z,95801.84
2018-03-16T01:28:15.533Z,95789.84
2018-03-16T01:30:42.967Z,95789.64
2018-03-16T01:33:10.398Z,95796.02
2018-03-16T01:38:11.706Z,95786.98
2018-03-16T01:40:39.137Z,95788.84
2018-03-16T01:43:06.561Z,95785.20
2018-03-16T01:45:34.771Z,95783.41
2018-03-16T01:48:02.186Z,95781.45
2018-03-16T01:50:29.672Z,95785.90
2018-03-16T01:53:02.956Z,95779.13
2018-03-16T01:55:30.460Z,95776.95
2018-03-16T01:57:58.102Z,95786.57
2018-03-16T02:00:25.482Z,95777.98
2018-03-16T02:02:52.909Z,95781.83
2018-03-16T02:05:20.321Z,95784.39
2018-03-16T02:07:47.751Z,95786.42
2018-03-16T02:10:15.196Z,95784.88
2018-03-16T02:12:42.759Z,95778.59
2018-03-16T02:15:10.145Z,95781.95
2018-03-16T02:17:37.711Z,95782.20
2018-03-16T02:20:05.146Z,95782.09
2018-03-16T02:22:32.578Z,95780.63
2018-03-16T02:25:00.065Z,95784.95
2018-03-16T02:27:27.491Z,95789.34
2018-03-16T02:29:54.956Z,95790.08
2018-03-16T02:32:22.345Z,95784.63
2018-03-16T02:34:49.792Z,95787.61
2018-03-16T02:37:17.221Z,95784.92
2018-03-16T02:39:44.651Z,95785.39
2018-03-16T02:42:12.048Z,95790.41
2018-03-16T02:44:39.475Z,95778.54
2018-03-16T02:47:06.907Z,95783.02
2018-03-16T02:49:34.335Z,95792.13
2018-03-16T02:52:01.762Z,95789.62
2018-03-16T02:54:29.150Z,95795.49
2018-03-16T02:56:56.613Z,95783.36
2018-03-16T02:59:24.054Z,95793.39
2018-03-16T03:01:51.511Z,95785.67
2018-03-16T03:04:18.968Z,95791.70
2018-03-16T03:06:46.441Z,95789.89
2018-03-16T03:09:13.861Z,95792.52
2018-03-16T03:11:41.327Z,95797.25
2018-03-16T03:14:08.788Z,95797.34
2018-03-16T03:16:36.260Z,95794.66
2018-03-16T03:19:03.727Z,95799.27
2018-03-16T03:21:31.259Z,95800.66
2018-03-16T03:23:58.673Z,95801.63
2018-03-16T03:26:26.077Z,95795.22
2018-03-16T03:28:53.517Z,95796.03
2018-03-16T03:31:20.940Z,95793.41
2018-03-16T03:33:48.955Z,95800.09
2018-03-16T03:36:16.390Z,95805.14
2018-03-16T03:38:43.856Z,95803.87
2018-03-16T03:41:11.342Z,95798.41
2018-03-16T03:43:38.812Z,95801.33
2018-03-16T03:46:06.256Z,95806.21
2018-03-16T03:48:33.686Z,95803.92
2018-03-16T03:51:01.106Z,95800.29
2018-03-16T03:53:28.509Z,95799.71
2018-03-16T03:55:56.213Z,95811.61
2018-03-16T03:58:23.674Z,95815.93
2018-03-16T04:00:51.104Z,95821.14
2018-03-16T04:03:18.541Z,95821.70
2018-03-16T04:05:46.027Z,95818.33
2018-03-16T04:08:14.269Z,95824.37
2018-03-16T04:10:41.825Z,95815.17
2018-03-16T04:13:09.226Z,95815.69
2018-03-16T04:15:37.547Z,95813.39
2018-03-16T04:18:05.005Z,95820.47
2018-03-16T04:20:32.404Z,95818.01
2018-03-16T04:22:59.804Z,95828.78
2018-03-16T04:25:27.284Z,95826.84
2018-03-16T04:27:54.701Z,95830.30
2018-03-16T04:30:22.134Z,95833.16
2018-03-16T04:32:49.550Z,95831.79
2018-03-16T04:35:16.978Z,95836.77
2018-03-16T04:37:44.433Z,95833.60
2018-03-16T04:40:11.837Z,95839.84
2018-03-16T04:42:39.273Z,95835.93
2018-03-16T04:45:06.696Z,95836.75
2018-03-16T04:47:34.139Z,95837.17
2018-03-16T04:50:01.626Z,95842.80
2018-03-16T04:52:29.204Z,95837.23
2018-03-16T04:54:56.690Z,95831.70
2018-03-16T04:57:24.106Z,95842.11
2018-03-16T04:59:51.499Z,95848.41
2018-03-16T05:02:19.000Z,95843.52
2018-03-16T05:04:46.448Z,95841.47
2018-03-16T05:07:13.895Z,95840.25
2018-03-16T05:09:41.415Z,95843.70
2018-03-16T05:12:08.809Z,95840.27
2018-03-16T05:14:36.280Z,95838.23
2018-03-16T05:17:03.669Z,95834.46
2018-03-16T05:19:31.109Z,95835.80
2018-03-16T05:21:58.573Z,95838.95
2018-03-16T05:24:26.020Z,95838.95
2018-03-16T05:26:53.588Z,95840.04
2018-03-16T05:29:20.984Z,95847.42
2018-03-16T05:31:48.389Z,95846.80
2018-03-16T05:34:15.865Z,95848.00
2018-03-16T05:36:43.252Z,95851.83
2018-03-16T05:39:10.731Z,95860.88
2018-03-16T05:41:38.247Z,95863.81
2018-03-16T05:44:05.705Z,95869.05
2018-03-16T05:46:33.145Z,95862.85
2018-03-16T05:49:00.706Z,95863.81
2018-03-16T05:51:28.130Z,95865.66
2018-03-16T05:53:55.556Z,95871.05
2018-03-16T05:56:23.031Z,95862.74
2018-03-16T05:58:50.482Z,95871.95
2018-03-16T06:01:17.917Z,95881.16
2018-03-16T06:03:45.378Z,95873.09
2018-03-16T06:06:12.856Z,95879.52
2018-03-16T06:08:40.305Z,95883.18
2018-03-16T06:11:07.748Z,95882.50
2018-03-16T06:13:35.412Z,95886.08
2018-03-16T06:16:02.897Z,95887.27
2018-03-16T06:18:30.349Z,95888.66
2018-03-16T06:20:58.128Z,95886.63
2018-03-16T06:23:25.569Z,95886.66
2018-03-16T06:25:53.138Z,95888.19
2018-03-16T06:28:20.722Z,95881.95
2018-03-16T06:30:48.205Z,95889.30
2018-03-16T06:33:15.782Z,95890.34
2018-03-16T06:35:43.197Z,95891.81
2018-03-16T06:38:10.821Z,95898.02
2018-03-16T06:40:38.335Z,95896.52
2018-03-16T06:43:05.797Z,95895.15
2018-03-16T06:45:33.305Z,95893.81
2018-03-16T06:48:00.712Z,95898.59
2018-03-16T06:50:28.269Z,95901.31
2018-03-16T06:52:55.811Z,95898.38
2018-03-16T06:55:23.302Z,95904.61
2018-03-16T06:57:50.895Z,95908.30
2018-03-16T07:00:18.361Z,95905.89
2018-03-16T07:02:45.846Z,95910.95
2018-03-16T07:05:13.317Z,95919.37
2018-03-16T07:07:40.750Z,95918.13
2018-03-16T07:10:08.205Z,95916.14
2018-03-16T07:12:35.641Z,95917.55
2018-03-16T07:15:15.631Z,95917.20
2018-03-16T07:17:43.092Z,95925.30
2018-03-16T07:20:10.498Z,95927.73
2018-03-16T07:22:37.997Z,95929.16
2018-03-16T07:25:05.453Z,95929.73
2018-03-16T07:27:32.926Z,95930.52
2018-03-16T07:30:00.402Z,95934.14
2018-03-16T07:32:27.831Z,95943.15
2018-03-16T07:34:55.291Z,95944.73
2018-03-16T07:37:22.696Z,95943.90
2018-03-16T07:39:50.088Z,95937.23
2018-03-16T07:42:17.508Z,95941.39
2018-03-16T07:44:45.747Z,95943.60
2018-03-16T07:47:13.232Z,95939.67
2018-03-16T07:49:40.749Z,95939.86
2018-03-16T07:52:08.248Z,95941.38
2018-03-16T07:54:35.743Z,95948.77
2018-03-16T07:57:03.202Z,95955.47
2018-03-16T07:59:30.637Z,95951.92
2018-03-16T08:01:58.130Z,95952.86
2018-03-16T08:04:25.553Z,95951.73
2018-03-16T08:06:53.630Z,95958.59
2018-03-16T08:09:21.071Z,95952.89
2018-03-16T08:11:48.498Z,95954.24
2018-03-16T08:14:15.912Z,95955.18
2018-03-16T08:16:43.501Z,95955.88
2018-03-16T08:19:11.010Z,95957.35
2018-03-16T08:21:38.408Z,95957.27
2018-03-16T08:24:05.832Z,95963.21
2018-03-16T08:26:33.369Z,95962.66
2018-03-16T08:29:00.889Z,95958.34
2018-03-16T08:31:28.385Z,95961.94
2018-03-16T08:33:55.893Z,95959.97
2018-03-16T08:36:23.366Z,95955.33
2018-03-16T08:38:50.911Z,95955.72
2018-03-16T08:41:18.340Z,95954.63
2018-03-16T08:43:45.933Z,95961.09
2018-03-16T08:46:13.358Z,95951.39
2018-03-16T08:48:40.831Z,95948.66
2018-03-16T08:51:08.307Z,95956.66
2018-03-16T08:53:35.793Z,95944.84
2018-03-16T08:56:03.459Z,95957.20
2018-03-16T08:58:30.893Z,95953.97
2018-03-16T09:00:58.352Z,95953.67
2018-03-16T09:03:25.858Z,95961.13
2018-03-16T09:05:53.295Z,95964.45
2018-03-16T09:08:20.704Z,95968.30
2018-03-16T09:10:48.181Z,95962.03
2018-03-16T09:13:15.617Z,95958.98
2018-03-16T09:15:43.083Z,95959.77
2018-03-16T09:18:10.605Z,95958.02
2018-03-16T09:20:38.172Z,95964.47
2018-03-16T09:23:05.813Z,95964.97
2018-03-16T09:25:33.381Z,95966.12
2018-03-16T09:28:01.090Z,95976.44
2018-03-16T09:30:28.588Z,95969.16
2018-03-16T09:32:56.095Z,95968.60
2018-03-16T09:35:25.021Z,95969.91
2018-03-16T09:37:52.500Z,95962.07
2018-03-16T09:40:19.984Z,95967.62
2018-03-16T09:42:47.486Z,95962.22
2018-03-16T09:45:14.989Z,95960.71
2018-03-16T09:47:42.433Z,95961.16
2018-03-16T09:50:09.928Z,95960.20
2018-03-16T09:52:37.449Z,95967.68
2018-03-16T09:55:16.667Z,95964.93
2018-03-16T09:57:44.152Z,95970.81
2018-03-16T10:00:11.626Z,95964.00
2018-03-16T10:02:39.153Z,95966.31
2018-03-16T10:05:06.699Z,95970.06
2018-03-16T10:07:34.136Z,95960.08
2018-03-16T10:10:01.594Z,95957.78
2018-03-16T10:12:29.042Z,95956.64
2018-03-16T10:14:56.633Z,95954.91
2018-03-16T10:17:24.130Z,95941.95
2018-03-16T10:19:51.577Z,95946.86
2018-03-16T10:22:19.091Z,95940.08
2018-03-16T10:24:46.623Z,95930.77
2018-03-16T10:27:14.568Z,95933.80
2018-03-16T10:29:42.235Z,95931.97
2018-03-16T10:32:09.694Z,95932.59
2018-03-16T10:34:37.869Z,95931.27
2018-03-16T10:37:05.436Z,95932.70
2018-03-16T10:39:32.937Z,95929.33
2018-03-16T10:42:00.377Z,95929.17
2018-03-16T10:44:27.929Z,95925.75
2018-03-16T10:46:55.490Z,95918.98
2018-03-16T10:49:22.954Z,95916.97
2018-03-16T10:51:50.423Z,95912.23
2018-03-16T10:54:18.056Z,95912.88
2018-03-16T10:56:45.504Z,95914.02
2018-03-16T10:59:14.312Z,95914.94
2018-03-16T11:01:47.716Z,95907.34
2018-03-16T11:04:15.324Z,95903.72
2018-03-16T11:06:46.740Z,95904.01
2018-03-16T11:09:14.234Z,95897.95
2018-03-16T11:11:41.894Z,95902.27
2018-03-16T11:14:10.895Z,95901.86
2018-03-16T11:16:39.523Z,95898.53
2018-03-16T11:19:07.138Z,95902.58
2018-03-16T11:21:34.612Z,95905.50
2018-03-16T11:24:02.189Z,95897.52
2018-03-16T11:26:29.736Z,95897.33
2018-03-16T11:28:57.206Z,95895.06
2018-03-16T11:31:24.760Z,95894.64
2018-03-16T11:33:52.336Z,95888.52
2018-03-16T11:36:19.804Z,95895.38
2018-03-16T11:38:47.329Z,95897.98
2018-03-16T11:41:14.773Z,95891.24
2018-03-16T11:43:42.266Z,95885.39
2018-03-16T11:46:09.710Z,95886.44
2018-03-16T11:48:38.052Z,95879.52
2018-03-16T11:51:05.523Z,95877.56
2018-03-16T11:53:32.924Z,95869.52
2018-03-16T11:56:00.483Z,95871.70
2018-03-16T11:58:27.952Z,95874.77
2018-03-16T12:00:55.446Z,95872.78
2018-03-16T12:03:23.494Z,95857.82
2018-03-16T12:05:51.270Z,95857.37
2018-03-16T12:08:18.731Z,95848.78
2018-03-16T12:10:46.195Z,95850.97
2018-03-16T12:13:13.685Z,95841.52
2018-03-16T12:15:41.178Z,95830.19
2018-03-16T12:18:08.664Z,95836.08
2018-03-16T12:20:36.478Z,95826.33
2018-03-16T12:23:04.035Z,95826.00
2018-03-16T12:25:31.748Z,95822.86
2018-03-16T12:27:59.182Z,95828.31
2018-03-16T12:30:26.649Z,95822.79
2018-03-16T12:32:54.100Z,95822.02
2018-03-16T12:35:21.813Z,95824.33
2018-03-16T12:37:49.328Z,95815.86
2018-03-16T12:40:17.208Z,95804.06
2018-03-16T12:42:45.095Z,95804.14
2018-03-16T12:45:12.603Z,95800.66
2018-03-16T12:47:40.093Z,95797.41
2018-03-16T12:50:07.576Z,95794.44
2018-03-16T12:52:35.049Z,95790.65
2018-03-16T12:55:02.559Z,95789.06
2018-03-16T12:57:30.038Z,95780.31
2018-03-16T12:59:58.350Z,95777.23
2018-03-16T13:02:25.839Z,95770.97
2018-03-16T13:04:53.379Z,95776.75
2018-03-16T13:07:20.851Z,95779.23
2018-03-16T13:09:48.317Z,95771.48
2018-03-16T13:12:15.785Z,95770.84
2018-03-16T13:14:43.221Z,95766.59
2018-03-16T13:17:11.334Z,95762.23
2018-03-16T13:19:38.793Z,95758.80
2018-03-16T13:22:06.233Z,95755.44
2018-03-16T13:24:33.722Z,95746.83
2018-03-16T13:27:02.175Z,95745.23
2018-03-16T13:29:29.667Z,95740.98
2018-03-16T13:31:57.134Z,95741.48
2018-03-16T13:34:24.611Z,95738.58
2018-03-16T13:36:52.070Z,95725.02
2018-03-16T13:39:19.538Z,95719.57
2018-03-16T13:41:47.158Z,95710.91
2018-03-16T13:44:14.659Z,95704.52
2018-03-16T13:46:42.097Z,95700.84
2018-03-16T13:49:10.008Z,95692.02
2018-03-16T13:51:37.433Z,95689.62
2018-03-16T13:54:04.891Z,95691.59
2018-03-16T13:56:32.595Z,95685.88
2018-03-16T13:59:00.079Z,95690.58
2018-03-16T14:01:27.562Z,95686.51
2018-03-16T14:03:55.088Z,95675.44
2018-03-16T14:06:22.484Z,95680.98
2018-03-16T14:08:50.178Z,95668.59
2018-03-16T14:11:18.385Z,95673.47
2018-03-16T14:13:45.829Z,95671.39
2018-03-16T14:16:13.365Z,95669.70
2018-03-16T14:18:40.901Z,95677.24
2018-03-16T14:21:08.820Z,95673.06
2018-03-16T14:23:36.212Z,95675.99
2018-03-16T14:26:03.678Z,95670.14
2018-03-16T14:28:31.854Z,95665.95
2018-03-16T14:30:59.475Z,95661.80
2018-03-16T14:33:26.900Z,95660.40
2018-03-16T14:35:54.414Z,95662.74
2018-03-16T14:38:21.962Z,95661.80
2018-03-16T14:40:49.672Z,95665.88
2018-03-16T14:43:17.160Z,95659.55
2018-03-16T14:45:45.311Z,95656.36
2018-03-16T14:48:12.749Z,95654.81
2018-03-16T14:50:40.196Z,95653.47
2018-03-16T14:53:08.091Z,95657.78
2018-03-16T14:55:35.634Z,95648.90
2018-03-16T14:58:03.106Z,95653.78
2018-03-16T15:00:31.326Z,95659.31
2018-03-16T15:02:58.842Z,95652.41
2018-03-16T15:05:26.393Z,95649.67
2018-03-16T15:07:54.184Z,95650.64
2018-03-16T15:10:21.773Z,95640.75
2018-03-16T15:12:49.225Z,95650.53
2018-03-16T15:15:16.710Z,95650.59
2018-03-16T15:17:44.165Z,95650.67
2018-03-16T15:20:11.617Z,95643.27
2018-03-16T15:22:39.053Z,95647.74
2018-03-16T15:25:06.516Z,95647.99
2018-03-16T15:27:33.964Z,95642.94
2018-03-16T15:30:02.248Z,95647.17
2018-03-16T15:32:29.764Z,95646.16
2018-03-16T15:34:58.057Z,95642.58
2018-03-16T15:37:25.556Z,95644.27
2018-03-16T15:39:52.973Z,95645.09
2018-03-16T15:42:20.438Z,95637.09
2018-03-16T15:44:48.015Z,95637.65
2018-03-16T15:47:15.473Z,95636.14
2018-03-16T15:49:42.955Z,95631.46
2018-03-16T15:52:10.426Z,95632.60
2018-03-16T15:54:38.531Z,95638.55
2018-03-16T15:57:06.045Z,95629.41
2018-03-16T15:59:33.572Z,95621.13
2018-03-16T16:02:01.029Z,95616.87
2018-03-16T16:04:28.458Z,95617.80
2018-03-16T16:06:55.949Z,95610.84
2018-03-16T16:09:23.451Z,95607.23
2018-03-16T16:11:50.973Z,95606.42
2018-03-16T16:14:18.490Z,95613.72
2018-03-16T16:16:45.954Z,95611.34
2018-03-16T16:19:13.393Z,95600.16
2018-03-16T16:21:40.876Z,95597.16
2018-03-16T16:24:08.706Z,95589.53
2018-03-16T16:26:36.182Z,95596.36
2018-03-16T16:29:03.641Z,95602.35
2018-03-16T16:31:31.270Z,95601.90
2018-03-16T16:33:58.864Z,95602.93
2018-03-16T16:36:26.385Z,95600.38
2018-03-16T16:38:53.869Z,95600.42
2018-03-16T16:41:21.522Z,95605.10
2018-03-16T16:43:48.979Z,95613.78
2018-03-16T16:46:16.575Z,95619.98
2018-03-16T16:48:44.014Z,95626.19
2018-03-16T16:51:11.583Z,95625.48
2018-03-16T16:53:39.106Z,95628.52
2018-03-16T16:56:06.576Z,95622.11
2018-03-16T16:58:34.009Z,95631.47
2018-03-16T17:01:01.450Z,95625.17
2018-03-16T17:03:28.980Z,95633.52
2018-03-16T17:05:56.436Z,95636.43
2018-03-16T17:08:23.877Z,95633.66
2018-03-16T17:10:51.291Z,95629.53
2018-03-16T17:13:19.645Z,95626.00
2018-03-16T17:15:47.122Z,95622.18
2018-03-16T17:18:15.302Z,95636.76
2018-03-16T17:20:42.713Z,95638.23
2018-03-16T17:23:10.156Z,95631.34
2018-03-16T17:25:37.786Z,95636.48
2018-03-16T17:28:05.224Z,95644.54
2018-03-16T17:30:32.649Z,95651.20
2018-03-16T17:33:00.309Z,95645.59
2018-03-16T17:35:27.802Z,95651.27
2018-03-16T17:37:55.222Z,95657.56
2018-03-16T17:40:22.632Z,95650.84
2018-03-16T17:42:50.537Z,95654.04
2018-03-16T17:45:18.006Z,95651.35
2018-03-16T17:47:45.556Z,95641.77
2018-03-16T17:50:12.980Z,95638.44
2018-03-16T17:52:40.569Z,95642.80
2018-03-16T17:55:08.043Z,95648.96
2018-03-16T17:57:35.569Z,95648.27
2018-03-16T18:00:03.013Z,95654.88
2018-03-16T18:02:30.490Z,95658.55
2018-03-16T18:04:58.060Z,95652.87
2018-03-16T18:07:25.503Z,95653.33
2018-03-16T18:09:53.359Z,95657.98
2018-03-16T18:12:20.789Z,95656.75
2018-03-16T18:14:48.197Z,95652.62
2018-03-16T18:17:15.904Z,95660.20
2018-03-16T18:19:43.368Z,95660.09
2018-03-16T18:22:10.774Z,95655.73
2018-03-16T18:24:38.255Z,95652.09
2018-03-16T18:27:06.024Z,95654.42
2018-03-16T18:29:33.433Z,95647.30
2018-03-16T18:32:00.930Z,95651.03
2018-03-16T18:34:28.406Z,95647.59
2018-03-16T18:36:55.869Z,95658.44
2018-03-16T18:39:23.368Z,95663.19
2018-03-16T18:41:50.959Z,95659.52
2018-03-16T18:44:18.445Z,95667.05
2018-03-16T18:46:45.914Z,95668.03
2018-03-16T18:49:13.368Z,95670.09
2018-03-16T18:51:40.842Z,95678.11
2018-03-16T18:54:08.574Z,95679.14
2018-03-16T18:56:36.275Z,95686.52
2018-03-16T18:59:03.952Z,95688.23
2018-03-16T19:01:31.410Z,95693.68
2018-03-16T19:03:59.051Z,95689.75
2018-03-16T19:06:26.711Z,95688.10
2018-03-16T19:08:54.196Z,95691.06
2018-03-16T19:11:22.253Z,95699.54
2018-03-16T19:13:49.702Z,95703.14
2018-03-16T19:16:17.544Z,95707.28
2018-03-16T19:18:44.976Z,95714.17
2018-03-16T19:21:12.786Z,95719.88
2018-03-16T19:23:40.381Z,95713.31
2018-03-16T19:26:07.970Z,95722.70
2018-03-16T19:28:35.471Z,95729.62
2018-03-16T19:31:02.918Z,95733.44
2018-03-16T19:33:30.406Z,95732.05
2018-03-16T19:35:57.882Z,95734.95
2018-03-16T19:38:25.358Z,95741.52
2018-03-16T19:40:52.983Z,95740.86
2018-03-16T19:43:20.496Z,95739.86
2018-03-16T19:45:48.134Z,95736.59
2018-03-16T19:48:15.587Z,95736.92
2018-03-16T19:50:43.116Z,95738.95
2018-03-16T19:53:10.678Z,95735.97
2018-03-16T19:55:38.161Z,95735.80
2018-03-16T19:58:05.713Z,95734.47
2018-03-16T20:00:33.172Z,95728.16
2018-03-16T20:03:00.638Z,95740.64
2018-03-16T20:05:28.092Z,95734.45
2018-03-16T20:07:55.568Z,95737.67
2018-03-16T20:10:23.038Z,95746.27
2018-03-16T20:12:50.537Z,95742.97
2018-03-16T20:15:17.984Z,95750.28
2018-03-16T20:17:45.460Z,95737.38
2018-03-16T20:20:13.023Z,95742.72
2018-03-16T20:22:40.477Z,95734.39
2018-03-16T20:25:07.943Z,95733.27
2018-03-16T20:27:35.591Z,95734.06
2018-03-16T20:30:03.004Z,95735.89
2018-03-16T20:32:30.468Z,95734.52
2018-03-16T20:34:57.955Z,95728.16
2018-03-16T20:37:25.652Z,95728.76
2018-03-16T20:39:53.089Z,95725.32
2018-03-16T20:42:20.615Z,95722.97
2018-03-16T20:44:48.221Z,95736.09
2018-03-16T20:47:15.707Z,95729.36
2018-03-16T20:49:43.193Z,95737.58
2018-03-16T20:52:10.647Z,95739.56
2018-03-16T20:54:38.137Z,95728.91
2018-03-16T20:57:05.573Z,95731.45
2018-03-16T20:59:33.213Z,95732.98
2018-03-16T21:02:00.684Z,95730.67
2018-03-16T21:04:28.134Z,95733.23
2018-03-16T21:06:55.682Z,95734.24
2018-03-16T21:09:23.091Z,95728.74
2018-03-16T21:11:50.532Z,95730.76
2018-03-16T21:14:17.951Z,95730.86
2018-03-16T21:16:45.389Z,95731.75
2018-03-16T21:19:12.792Z,95723.25
2018-03-16T21:21:40.207Z,95728.29
2018-03-16T21:24:07.673Z,95715.61
2018-03-16T21:26:35.194Z,95714.38
2018-03-16T21:29:02.756Z,95718.09
2018-03-16T21:31:30.314Z,95724.19
2018-03-16T21:33:57.755Z,95725.45
2018-03-16T21:36:25.218Z,95725.11
2018-03-16T21:38:52.679Z,95721.16
2018-03-16T21:41:20.108Z,95717.23
2018-03-16T21:43:47.568Z,95708.73
2018-03-16T21:46:15.041Z,95708.43
2018-03-16T21:48:42.572Z,95702.33
2018-03-16T21:51:10.070Z,95691.36
2018-03-16T21:53:37.519Z,95688.96
2018-03-16T21:56:05.032Z,95689.32
2018-03-16T21:58:32.665Z,95681.64
2018-03-16T22:01:00.108Z,95686.02
2018-03-16T22:03:27.537Z,95679.14
2018-03-16T22:05:54.978Z,95680.64
2018-03-16T22:08:22.477Z,95672.72
2018-03-16T22:10:50.011Z,95664.43
2018-03-16T22:13:17.446Z,95671.09
2018-03-16T22:15:44.920Z,95665.94
2018-03-16T22:18:12.357Z,95669.86
2018-03-16T22:20:40.048Z,95669.35
2018-03-16T22:23:07.635Z,95668.62
2018-03-16T22:25:35.061Z,95659.66
2018-03-16T22:28:02.648Z,95660.67
2018-03-16T22:30:30.542Z,95652.61
2018-03-16T22:32:57.941Z,95650.41
2018-03-16T22:35:25.357Z,95652.38
2018-03-16T22:37:52.760Z,95646.00
2018-03-16T22:40:20.307Z,95632.45
2018-03-16T22:42:47.797Z,95630.52
2018-03-16T22:47:42.218Z,95630.71
2018-03-16T22:50:09.701Z,95624.17
2018-03-16T22:52:37.156Z,95618.94
2018-03-16T22:55:04.573Z,95608.63
2018-03-16T22:57:32.070Z,95613.94
2018-03-16T22:59:59.562Z,95610.05
2018-03-16T23:02:27.031Z,95609.86
2018-03-16T23:04:54.510Z,95606.34
2018-03-16T23:07:22.160Z,95612.54
2018-03-16T23:09:49.608Z,95616.38
2018-03-16T23:12:17.101Z,95616.75
2018-03-16T23:14:44.541Z,95608.61
2018-03-16T23:17:11.997Z,95604.22
2018-03-16T23:19:40.068Z,95605.92
2018-03-16T23:22:07.650Z,95598.00
2018-03-16T23:24:35.138Z,95598.19
2018-03-16T23:27:02.638Z,95594.52
2018-03-16T23:29:30.122Z,95591.88
2018-03-16T23:31:57.664Z,95592.45
2018-03-16T23:34:25.113Z,95587.22
2018-03-16T23:36:52.770Z,95585.88
2018-03-16T23:39:20.263Z,95582.97
2018-03-16T23:41:47.743Z,95587.11
2018-03-16T23:44:15.211Z,95579.22
2018-03-16T23:46:42.683Z,95582.73
2018-03-16T23:49:10.077Z,95573.59
2018-03-16T23:51:37.654Z,95572.89
2018-03-16T23:54:05.082Z,95570.31
2018-03-16T23:56:32.468Z,95572.66
2018-03-16T23:59:00.102Z,95569.81
